sensor_id;sensor_type;location;lat;lon;timestamp;P1;durP1;ratioP1;P2;durP2;ratioP2
68250;SDS011;55066;51.560;4.642;2023-08-07T00:01:43;4.93;;;1.57;;
68250;SDS011;55066;51.560;4.642;2023-08-07T00:04:09;8.40;;;1.88;;
68250;SDS011;55066;51.560;4.642;2023-08-07T00:06:35;6.30;;;1.00;;
68250;SDS011;55066;51.560;4.642;2023-08-07T00:09:00;6.87;;;1.40;;
68250;SDS011;55066;51.560;4.642;2023-08-07T00:11:26;5.38;;;1.42;;
68250;SDS011;55066;51.560;4.642;2023-08-07T00:13:53;9.37;;;1.50;;
68250;SDS011;55066;51.560;4.642;2023-08-07T00:16:18;8.98;;;1.70;;
68250;SDS011;55066;51.560;4.642;2023-08-07T00:18:43;9.13;;;1.80;;
68250;SDS011;55066;51.560;4.642;2023-08-07T00:21:09;7.57;;;1.70;;
68250;SDS011;55066;51.560;4.642;2023-08-07T00:23:34;8.10;;;2.03;;
68250;SDS011;55066;51.560;4.642;2023-08-07T00:26:00;12.57;;;1.92;;
68250;SDS011;55066;51.560;4.642;2023-08-07T00:28:25;8.10;;;1.80;;
68250;SDS011;55066;51.560;4.642;2023-08-07T00:30:51;13.40;;;2.60;;
68250;SDS011;55066;51.560;4.642;2023-08-07T00:33:16;10.50;;;2.73;;
68250;SDS011;55066;51.560;4.642;2023-08-07T00:35:41;18.52;;;4.00;;
68250;SDS011;55066;51.560;4.642;2023-08-07T00:38:07;20.43;;;5.40;;
68250;SDS011;55066;51.560;4.642;2023-08-07T00:40:36;16.37;;;4.67;;
68250;SDS011;55066;51.560;4.642;2023-08-07T00:43:03;20.35;;;4.75;;
68250;SDS011;55066;51.560;4.642;2023-08-07T00:45:29;10.80;;;2.97;;
68250;SDS011;55066;51.560;4.642;2023-08-07T00:47:56;17.55;;;3.55;;
68250;SDS011;55066;51.560;4.642;2023-08-07T00:50:22;16.10;;;3.97;;
68250;SDS011;55066;51.560;4.642;2023-08-07T00:52:47;18.67;;;3.72;;
68250;SDS011;55066;51.560;4.642;2023-08-07T00:55:13;18.37;;;3.83;;
68250;SDS011;55066;51.560;4.642;2023-08-07T00:57:38;15.07;;;3.97;;
68250;SDS011;55066;51.560;4.642;2023-08-07T01:00:04;15.50;;;3.65;;
68250;SDS011;55066;51.560;4.642;2023-08-07T01:02:30;16.60;;;4.20;;
68250;SDS011;55066;51.560;4.642;2023-08-07T01:04:56;17.27;;;4.25;;
68250;SDS011;55066;51.560;4.642;2023-08-07T01:07:22;16.70;;;3.42;;
68250;SDS011;55066;51.560;4.642;2023-08-07T01:09:47;12.13;;;3.10;;
68250;SDS011;55066;51.560;4.642;2023-08-07T01:12:18;11.60;;;2.67;;
68250;SDS011;55066;51.560;4.642;2023-08-07T01:14:52;13.48;;;3.08;;
68250;SDS011;55066;51.560;4.642;2023-08-07T01:17:23;17.27;;;4.57;;
68250;SDS011;55066;51.560;4.642;2023-08-07T01:19:50;14.05;;;3.42;;
68250;SDS011;55066;51.560;4.642;2023-08-07T01:22:18;13.63;;;3.60;;
68250;SDS011;55066;51.560;4.642;2023-08-07T01:24:45;10.57;;;2.38;;
68250;SDS011;55066;51.560;4.642;2023-08-07T01:32:24;8.95;;;2.13;;
68250;SDS011;55066;51.560;4.642;2023-08-07T01:34:55;13.23;;;2.50;;
68250;SDS011;55066;51.560;4.642;2023-08-07T01:37:22;16.40;;;3.70;;
68250;SDS011;55066;51.560;4.642;2023-08-07T01:39:48;19.45;;;4.55;;
68250;SDS011;55066;51.560;4.642;2023-08-07T01:42:15;19.25;;;4.18;;
68250;SDS011;55066;51.560;4.642;2023-08-07T01:44:41;18.03;;;4.53;;
68250;SDS011;55066;51.560;4.642;2023-08-07T01:47:07;19.17;;;4.70;;
68250;SDS011;55066;51.560;4.642;2023-08-07T01:49:32;17.40;;;3.77;;
68250;SDS011;55066;51.560;4.642;2023-08-07T01:51:58;11.83;;;2.97;;
68250;SDS011;55066;51.560;4.642;2023-08-07T01:54:23;12.55;;;3.45;;
68250;SDS011;55066;51.560;4.642;2023-08-07T01:56:49;9.77;;;2.63;;
68250;SDS011;55066;51.560;4.642;2023-08-07T01:59:14;11.30;;;2.77;;
68250;SDS011;55066;51.560;4.642;2023-08-07T02:01:40;10.13;;;1.70;;
68250;SDS011;55066;51.560;4.642;2023-08-07T02:04:05;7.47;;;1.90;;
68250;SDS011;55066;51.560;4.642;2023-08-07T02:06:31;7.83;;;1.70;;
68250;SDS011;55066;51.560;4.642;2023-08-07T02:08:56;7.27;;;1.80;;
68250;SDS011;55066;51.560;4.642;2023-08-07T02:11:22;7.47;;;2.08;;
68250;SDS011;55066;51.560;4.642;2023-08-07T02:13:47;11.60;;;2.07;;
68250;SDS011;55066;51.560;4.642;2023-08-07T02:16:13;13.20;;;2.73;;
68250;SDS011;55066;51.560;4.642;2023-08-07T02:18:38;9.73;;;2.07;;
68250;SDS011;55066;51.560;4.642;2023-08-07T02:21:04;10.13;;;2.70;;
68250;SDS011;55066;51.560;4.642;2023-08-07T02:23:29;11.57;;;2.63;;
68250;SDS011;55066;51.560;4.642;2023-08-07T02:25:55;13.50;;;2.53;;
68250;SDS011;55066;51.560;4.642;2023-08-07T02:28:20;14.95;;;2.92;;
68250;SDS011;55066;51.560;4.642;2023-08-07T02:30:46;8.38;;;2.50;;
68250;SDS011;55066;51.560;4.642;2023-08-07T02:33:16;11.05;;;2.20;;
68250;SDS011;55066;51.560;4.642;2023-08-07T02:35:43;6.65;;;2.13;;
68250;SDS011;55066;51.560;4.642;2023-08-07T02:38:10;6.25;;;2.17;;
68250;SDS011;55066;51.560;4.642;2023-08-07T02:40:35;8.50;;;1.80;;
68250;SDS011;55066;51.560;4.642;2023-08-07T02:43:00;10.73;;;2.13;;
68250;SDS011;55066;51.560;4.642;2023-08-07T02:45:26;8.20;;;2.13;;
68250;SDS011;55066;51.560;4.642;2023-08-07T02:47:51;9.63;;;2.27;;
68250;SDS011;55066;51.560;4.642;2023-08-07T02:50:17;8.97;;;2.27;;
68250;SDS011;55066;51.560;4.642;2023-08-07T02:52:42;4.03;;;1.30;;
68250;SDS011;55066;51.560;4.642;2023-08-07T02:55:08;7.47;;;1.90;;
68250;SDS011;55066;51.560;4.642;2023-08-07T02:57:33;7.17;;;1.90;;
68250;SDS011;55066;51.560;4.642;2023-08-07T02:59:58;10.70;;;1.73;;
68250;SDS011;55066;51.560;4.642;2023-08-07T03:02:24;7.77;;;1.80;;
68250;SDS011;55066;51.560;4.642;2023-08-07T03:04:49;11.05;;;2.00;;
68250;SDS011;55066;51.560;4.642;2023-08-07T03:07:15;10.85;;;1.77;;
68250;SDS011;55066;51.560;4.642;2023-08-07T03:09:40;7.17;;;2.10;;
68250;SDS011;55066;51.560;4.642;2023-08-07T03:12:06;7.00;;;1.83;;
68250;SDS011;55066;51.560;4.642;2023-08-07T03:14:31;9.57;;;1.75;;
68250;SDS011;55066;51.560;4.642;2023-08-07T03:16:57;8.17;;;1.70;;
68250;SDS011;55066;51.560;4.642;2023-08-07T03:19:22;8.40;;;2.07;;
68250;SDS011;55066;51.560;4.642;2023-08-07T03:21:49;7.83;;;2.00;;
68250;SDS011;55066;51.560;4.642;2023-08-07T03:24:14;9.00;;;2.30;;
68250;SDS011;55066;51.560;4.642;2023-08-07T03:26:39;10.93;;;1.90;;
68250;SDS011;55066;51.560;4.642;2023-08-07T03:29:06;11.88;;;2.47;;
68250;SDS011;55066;51.560;4.642;2023-08-07T03:31:32;9.93;;;2.90;;
68250;SDS011;55066;51.560;4.642;2023-08-07T03:33:57;13.95;;;2.60;;
68250;SDS011;55066;51.560;4.642;2023-08-07T03:36:23;13.60;;;2.63;;
68250;SDS011;55066;51.560;4.642;2023-08-07T03:38:50;12.73;;;3.08;;
68250;SDS011;55066;51.560;4.642;2023-08-07T03:41:15;12.60;;;3.20;;
68250;SDS011;55066;51.560;4.642;2023-08-07T03:43:41;14.57;;;3.07;;
68250;SDS011;55066;51.560;4.642;2023-08-07T03:46:07;8.48;;;2.80;;
68250;SDS011;55066;51.560;4.642;2023-08-07T03:48:32;10.70;;;2.47;;
68250;SDS011;55066;51.560;4.642;2023-08-07T03:51:03;8.00;;;2.65;;
68250;SDS011;55066;51.560;4.642;2023-08-07T03:53:31;9.32;;;2.08;;
68250;SDS011;55066;51.560;4.642;2023-08-07T03:55:56;6.53;;;1.63;;
68250;SDS011;55066;51.560;4.642;2023-08-07T03:58:22;7.30;;;2.20;;
68250;SDS011;55066;51.560;4.642;2023-08-07T04:00:47;10.30;;;2.17;;
68250;SDS011;55066;51.560;4.642;2023-08-07T04:03:13;8.45;;;1.85;;
68250;SDS011;55066;51.560;4.642;2023-08-07T04:05:38;7.80;;;2.20;;
68250;SDS011;55066;51.560;4.642;2023-08-07T04:08:06;10.10;;;1.80;;
68250;SDS011;55066;51.560;4.642;2023-08-07T04:10:31;8.63;;;1.90;;
68250;SDS011;55066;51.560;4.642;2023-08-07T04:12:57;7.57;;;1.90;;
68250;SDS011;55066;51.560;4.642;2023-08-07T04:15:22;9.77;;;2.10;;
68250;SDS011;55066;51.560;4.642;2023-08-07T04:17:47;11.83;;;2.30;;
68250;SDS011;55066;51.560;4.642;2023-08-07T04:20:13;7.67;;;1.67;;
68250;SDS011;55066;51.560;4.642;2023-08-07T04:22:38;10.20;;;1.90;;
68250;SDS011;55066;51.560;4.642;2023-08-07T04:25:04;6.05;;;1.50;;
68250;SDS011;55066;51.560;4.642;2023-08-07T04:27:30;8.17;;;2.13;;
68250;SDS011;55066;51.560;4.642;2023-08-07T04:29:55;7.82;;;2.53;;
68250;SDS011;55066;51.560;4.642;2023-08-07T04:32:22;9.57;;;2.60;;
68250;SDS011;55066;51.560;4.642;2023-08-07T04:34:48;11.55;;;2.10;;
68250;SDS011;55066;51.560;4.642;2023-08-07T04:37:13;11.70;;;1.90;;
68250;SDS011;55066;51.560;4.642;2023-08-07T04:39:39;10.80;;;2.23;;
68250;SDS011;55066;51.560;4.642;2023-08-07T04:42:04;10.80;;;2.08;;
68250;SDS011;55066;51.560;4.642;2023-08-07T04:44:30;12.80;;;1.77;;
68250;SDS011;55066;51.560;4.642;2023-08-07T04:46:55;7.73;;;1.87;;
68250;SDS011;55066;51.560;4.642;2023-08-07T04:49:21;7.20;;;1.50;;
68250;SDS011;55066;51.560;4.642;2023-08-07T04:51:47;7.50;;;1.67;;
68250;SDS011;55066;51.560;4.642;2023-08-07T04:54:12;8.48;;;1.73;;
68250;SDS011;55066;51.560;4.642;2023-08-07T04:56:38;10.43;;;2.20;;
68250;SDS011;55066;51.560;4.642;2023-08-07T04:59:03;6.80;;;1.80;;
68250;SDS011;55066;51.560;4.642;2023-08-07T05:01:29;8.30;;;1.80;;
68250;SDS011;55066;51.560;4.642;2023-08-07T05:03:54;9.82;;;2.33;;
68250;SDS011;55066;51.560;4.642;2023-08-07T05:06:19;10.07;;;1.77;;
68250;SDS011;55066;51.560;4.642;2023-08-07T05:08:45;7.67;;;1.70;;
68250;SDS011;55066;51.560;4.642;2023-08-07T05:11:10;10.97;;;1.70;;
68250;SDS011;55066;51.560;4.642;2023-08-07T05:13:36;8.80;;;2.20;;
68250;SDS011;55066;51.560;4.642;2023-08-07T05:16:01;14.57;;;2.37;;
68250;SDS011;55066;51.560;4.642;2023-08-07T05:18:27;16.55;;;2.90;;
68250;SDS011;55066;51.560;4.642;2023-08-07T05:20:53;15.63;;;3.63;;
68250;SDS011;55066;51.560;4.642;2023-08-07T05:23:18;21.03;;;4.50;;
68250;SDS011;55066;51.560;4.642;2023-08-07T05:25:47;18.90;;;4.60;;
68250;SDS011;55066;51.560;4.642;2023-08-07T05:28:12;25.52;;;4.88;;
68250;SDS011;55066;51.560;4.642;2023-08-07T05:30:38;14.73;;;3.20;;
68250;SDS011;55066;51.560;4.642;2023-08-07T05:33:04;12.48;;;2.95;;
68250;SDS011;55066;51.560;4.642;2023-08-07T05:35:29;11.23;;;2.17;;
68250;SDS011;55066;51.560;4.642;2023-08-07T05:37:55;9.10;;;1.97;;
68250;SDS011;55066;51.560;4.642;2023-08-07T05:40:20;8.23;;;1.80;;
68250;SDS011;55066;51.560;4.642;2023-08-07T05:42:46;6.30;;;1.20;;
68250;SDS011;55066;51.560;4.642;2023-08-07T05:45:11;8.33;;;1.70;;
68250;SDS011;55066;51.560;4.642;2023-08-07T05:47:37;7.65;;;1.60;;
68250;SDS011;55066;51.560;4.642;2023-08-07T05:50:02;5.60;;;1.60;;
68250;SDS011;55066;51.560;4.642;2023-08-07T05:52:28;8.53;;;1.57;;
68250;SDS011;55066;51.560;4.642;2023-08-07T05:54:54;8.10;;;1.23;;
68250;SDS011;55066;51.560;4.642;2023-08-07T05:57:19;12.33;;;1.80;;
68250;SDS011;55066;51.560;4.642;2023-08-07T05:59:44;9.27;;;1.70;;
68250;SDS011;55066;51.560;4.642;2023-08-07T06:02:10;6.40;;;1.73;;
68250;SDS011;55066;51.560;4.642;2023-08-07T06:04:38;8.10;;;1.50;;
68250;SDS011;55066;51.560;4.642;2023-08-07T06:07:04;6.88;;;1.42;;
68250;SDS011;55066;51.560;4.642;2023-08-07T06:09:30;8.65;;;1.50;;
68250;SDS011;55066;51.560;4.642;2023-08-07T06:11:56;6.23;;;1.30;;
68250;SDS011;55066;51.560;4.642;2023-08-07T06:14:21;4.50;;;1.13;;
68250;SDS011;55066;51.560;4.642;2023-08-07T06:16:47;8.43;;;1.60;;
68250;SDS011;55066;51.560;4.642;2023-08-07T06:19:13;5.70;;;1.50;;
68250;SDS011;55066;51.560;4.642;2023-08-07T06:21:38;6.70;;;1.40;;
68250;SDS011;55066;51.560;4.642;2023-08-07T06:24:04;9.40;;;1.83;;
68250;SDS011;55066;51.560;4.642;2023-08-07T06:26:29;5.43;;;1.50;;
68250;SDS011;55066;51.560;4.642;2023-08-07T06:28:55;8.43;;;1.70;;
68250;SDS011;55066;51.560;4.642;2023-08-07T06:31:20;14.97;;;3.00;;
68250;SDS011;55066;51.560;4.642;2023-08-07T06:33:46;11.43;;;2.30;;
68250;SDS011;55066;51.560;4.642;2023-08-07T06:36:11;10.00;;;1.80;;
68250;SDS011;55066;51.560;4.642;2023-08-07T06:38:37;9.38;;;2.00;;
68250;SDS011;55066;51.560;4.642;2023-08-07T06:41:02;10.20;;;1.60;;
68250;SDS011;55066;51.560;4.642;2023-08-07T06:43:28;14.57;;;2.47;;
68250;SDS011;55066;51.560;4.642;2023-08-07T06:45:54;6.03;;;1.80;;
68250;SDS011;55066;51.560;4.642;2023-08-07T06:48:20;10.17;;;2.23;;
68250;SDS011;55066;51.560;4.642;2023-08-07T06:50:46;6.55;;;1.63;;
68250;SDS011;55066;51.560;4.642;2023-08-07T06:53:12;10.05;;;1.60;;
68250;SDS011;55066;51.560;4.642;2023-08-07T06:55:38;5.83;;;1.07;;
68250;SDS011;55066;51.560;4.642;2023-08-07T06:58:03;5.67;;;1.27;;
68250;SDS011;55066;51.560;4.642;2023-08-07T07:00:28;7.30;;;1.23;;
68250;SDS011;55066;51.560;4.642;2023-08-07T07:02:54;4.80;;;1.23;;
68250;SDS011;55066;51.560;4.642;2023-08-07T07:05:19;9.00;;;1.37;;
68250;SDS011;55066;51.560;4.642;2023-08-07T07:07:45;4.50;;;1.17;;
68250;SDS011;55066;51.560;4.642;2023-08-07T07:10:10;4.17;;;1.40;;
68250;SDS011;55066;51.560;4.642;2023-08-07T07:12:37;7.65;;;1.27;;
68250;SDS011;55066;51.560;4.642;2023-08-07T07:15:03;8.43;;;1.30;;
68250;SDS011;55066;51.560;4.642;2023-08-07T07:17:28;4.78;;;1.25;;
68250;SDS011;55066;51.560;4.642;2023-08-07T07:19:54;5.87;;;1.10;;
68250;SDS011;55066;51.560;4.642;2023-08-07T07:22:21;8.02;;;1.55;;
68250;SDS011;55066;51.560;4.642;2023-08-07T07:24:47;11.23;;;1.73;;
68250;SDS011;55066;51.560;4.642;2023-08-07T07:27:13;6.00;;;1.37;;
68250;SDS011;55066;51.560;4.642;2023-08-07T07:29:38;9.83;;;1.73;;
68250;SDS011;55066;51.560;4.642;2023-08-07T07:32:04;6.28;;;1.52;;
68250;SDS011;55066;51.560;4.642;2023-08-07T07:34:29;7.13;;;1.33;;
68250;SDS011;55066;51.560;4.642;2023-08-07T07:36:55;9.30;;;1.57;;
68250;SDS011;55066;51.560;4.642;2023-08-07T07:39:20;9.43;;;1.83;;
68250;SDS011;55066;51.560;4.642;2023-08-07T07:41:46;9.33;;;1.30;;
68250;SDS011;55066;51.560;4.642;2023-08-07T07:44:11;6.93;;;1.23;;
68250;SDS011;55066;51.560;4.642;2023-08-07T07:46:38;7.45;;;1.60;;
68250;SDS011;55066;51.560;4.642;2023-08-07T07:49:03;10.27;;;1.70;;
68250;SDS011;55066;51.560;4.642;2023-08-07T07:51:30;6.32;;;1.30;;
68250;SDS011;55066;51.560;4.642;2023-08-07T07:53:57;7.95;;;1.50;;
68250;SDS011;55066;51.560;4.642;2023-08-07T07:56:25;2.72;;;1.25;;
68250;SDS011;55066;51.560;4.642;2023-08-07T07:58:50;6.60;;;1.60;;
68250;SDS011;55066;51.560;4.642;2023-08-07T08:01:16;4.37;;;1.03;;
68250;SDS011;55066;51.560;4.642;2023-08-07T08:03:43;4.60;;;1.52;;
68250;SDS011;55066;51.560;4.642;2023-08-07T08:06:08;8.90;;;1.50;;
68250;SDS011;55066;51.560;4.642;2023-08-07T08:08:34;4.33;;;1.40;;
68250;SDS011;55066;51.560;4.642;2023-08-07T08:10:59;4.03;;;1.33;;
68250;SDS011;55066;51.560;4.642;2023-08-07T08:13:25;7.47;;;1.60;;
68250;SDS011;55066;51.560;4.642;2023-08-07T08:15:50;9.27;;;1.70;;
68250;SDS011;55066;51.560;4.642;2023-08-07T08:18:16;7.50;;;1.80;;
68250;SDS011;55066;51.560;4.642;2023-08-07T08:20:42;4.38;;;1.02;;
68250;SDS011;55066;51.560;4.642;2023-08-07T08:23:07;8.07;;;1.67;;
68250;SDS011;55066;51.560;4.642;2023-08-07T08:25:33;5.63;;;1.52;;
68250;SDS011;55066;51.560;4.642;2023-08-07T08:27:58;6.17;;;1.40;;
68250;SDS011;55066;51.560;4.642;2023-08-07T08:30:25;6.18;;;1.60;;
68250;SDS011;55066;51.560;4.642;2023-08-07T08:32:50;7.20;;;1.53;;
68250;SDS011;55066;51.560;4.642;2023-08-07T08:35:16;5.37;;;1.30;;
68250;SDS011;55066;51.560;4.642;2023-08-07T08:37:41;5.73;;;1.23;;
68250;SDS011;55066;51.560;4.642;2023-08-07T08:40:10;5.88;;;1.35;;
68250;SDS011;55066;51.560;4.642;2023-08-07T08:42:38;5.67;;;1.13;;
68250;SDS011;55066;51.560;4.642;2023-08-07T08:45:04;6.40;;;1.55;;
68250;SDS011;55066;51.560;4.642;2023-08-07T08:47:30;8.95;;;1.20;;
68250;SDS011;55066;51.560;4.642;2023-08-07T08:50:30;4.43;;;1.20;;
68250;SDS011;55066;51.560;4.642;2023-08-07T08:52:49;5.93;;;1.50;;
68250;SDS011;55066;51.560;4.642;2023-08-07T08:55:16;4.60;;;1.30;;
68250;SDS011;55066;51.560;4.642;2023-08-07T08:57:42;5.55;;;1.10;;
68250;SDS011;55066;51.560;4.642;2023-08-07T09:00:09;5.85;;;1.27;;
68250;SDS011;55066;51.560;4.642;2023-08-07T09:02:46;6.38;;;1.50;;
68250;SDS011;55066;51.560;4.642;2023-08-07T09:05:12;10.60;;;1.50;;
68250;SDS011;55066;51.560;4.642;2023-08-07T09:07:39;8.52;;;2.00;;
68250;SDS011;55066;51.560;4.642;2023-08-07T09:10:04;4.13;;;1.42;;
68250;SDS011;55066;51.560;4.642;2023-08-07T09:12:32;5.32;;;1.33;;
68250;SDS011;55066;51.560;4.642;2023-08-07T09:14:58;5.73;;;1.47;;
68250;SDS011;55066;51.560;4.642;2023-08-07T09:17:28;6.00;;;1.50;;
68250;SDS011;55066;51.560;4.642;2023-08-07T09:19:54;5.30;;;1.50;;
68250;SDS011;55066;51.560;4.642;2023-08-07T09:22:20;7.40;;;1.80;;
68250;SDS011;55066;51.560;4.642;2023-08-07T09:24:46;4.07;;;1.40;;
68250;SDS011;55066;51.560;4.642;2023-08-07T09:27:12;5.78;;;1.33;;
68250;SDS011;55066;51.560;4.642;2023-08-07T09:29:43;5.97;;;1.63;;
68250;SDS011;55066;51.560;4.642;2023-08-07T09:32:11;6.17;;;1.57;;
68250;SDS011;55066;51.560;4.642;2023-08-07T09:34:41;6.22;;;2.38;;
68250;SDS011;55066;51.560;4.642;2023-08-07T09:37:07;10.05;;;1.98;;
68250;SDS011;55066;51.560;4.642;2023-08-07T09:39:36;9.73;;;2.13;;
68250;SDS011;55066;51.560;4.642;2023-08-07T09:42:04;9.60;;;2.33;;
68250;SDS011;55066;51.560;4.642;2023-08-07T09:44:37;13.90;;;3.63;;
68250;SDS011;55066;51.560;4.642;2023-08-07T09:47:12;10.00;;;2.20;;
68250;SDS011;55066;51.560;4.642;2023-08-07T09:49:42;8.43;;;1.70;;
68250;SDS011;55066;51.560;4.642;2023-08-07T09:52:09;9.30;;;1.60;;
68250;SDS011;55066;51.560;4.642;2023-08-07T09:54:35;8.75;;;1.50;;
68250;SDS011;55066;51.560;4.642;2023-08-07T09:57:02;5.68;;;1.40;;
68250;SDS011;55066;51.560;4.642;2023-08-07T09:59:28;4.93;;;1.55;;
68250;SDS011;55066;51.560;4.642;2023-08-07T10:01:57;5.28;;;1.30;;
68250;SDS011;55066;51.560;4.642;2023-08-07T10:04:23;5.97;;;1.20;;
68250;SDS011;55066;51.560;4.642;2023-08-07T10:06:50;8.77;;;2.30;;
68250;SDS011;55066;51.560;4.642;2023-08-07T10:09:16;4.35;;;1.20;;
68250;SDS011;55066;51.560;4.642;2023-08-07T10:11:41;7.13;;;1.20;;
68250;SDS011;55066;51.560;4.642;2023-08-07T10:14:11;8.85;;;1.70;;
68250;SDS011;55066;51.560;4.642;2023-08-07T10:16:37;7.30;;;1.80;;
68250;SDS011;55066;51.560;4.642;2023-08-07T10:19:06;7.23;;;2.30;;
68250;SDS011;55066;51.560;4.642;2023-08-07T10:21:36;8.65;;;2.42;;
68250;SDS011;55066;51.560;4.642;2023-08-07T10:24:04;12.57;;;3.10;;
68250;SDS011;55066;51.560;4.642;2023-08-07T10:26:31;9.75;;;2.92;;
68250;SDS011;55066;51.560;4.642;2023-08-07T10:28:58;10.57;;;2.70;;
68250;SDS011;55066;51.560;4.642;2023-08-07T10:31:26;6.50;;;2.07;;
68250;SDS011;55066;51.560;4.642;2023-08-07T10:33:53;12.30;;;3.00;;
68250;SDS011;55066;51.560;4.642;2023-08-07T10:36:18;10.18;;;2.83;;
68250;SDS011;55066;51.560;4.642;2023-08-07T10:38:44;11.60;;;3.37;;
68250;SDS011;55066;51.560;4.642;2023-08-07T10:41:10;12.03;;;2.90;;
68250;SDS011;55066;51.560;4.642;2023-08-07T10:43:41;13.40;;;3.25;;
68250;SDS011;55066;51.560;4.642;2023-08-07T10:46:10;11.25;;;2.78;;
68250;SDS011;55066;51.560;4.642;2023-08-07T10:51:08;6.32;;;1.73;;
68250;SDS011;55066;51.560;4.642;2023-08-07T10:53:37;7.90;;;1.70;;
68250;SDS011;55066;51.560;4.642;2023-08-07T10:56:18;7.32;;;2.00;;
68250;SDS011;55066;51.560;4.642;2023-08-07T10:58:55;7.43;;;1.92;;
68250;SDS011;55066;51.560;4.642;2023-08-07T11:01:22;8.93;;;1.93;;
68250;SDS011;55066;51.560;4.642;2023-08-07T11:03:48;5.38;;;1.60;;
68250;SDS011;55066;51.560;4.642;2023-08-07T11:06:21;6.60;;;2.00;;
68250;SDS011;55066;51.560;4.642;2023-08-07T11:08:49;7.67;;;2.20;;
68250;SDS011;55066;51.560;4.642;2023-08-07T11:11:15;9.80;;;2.60;;
68250;SDS011;55066;51.560;4.642;2023-08-07T11:13:40;9.10;;;2.40;;
68250;SDS011;55066;51.560;4.642;2023-08-07T11:16:06;6.27;;;2.00;;
68250;SDS011;55066;51.560;4.642;2023-08-07T11:18:31;7.97;;;1.80;;
68250;SDS011;55066;51.560;4.642;2023-08-07T11:20:57;6.05;;;1.80;;
68250;SDS011;55066;51.560;4.642;2023-08-07T11:23:24;5.03;;;1.67;;
68250;SDS011;55066;51.560;4.642;2023-08-07T11:25:51;6.30;;;1.80;;
68250;SDS011;55066;51.560;4.642;2023-08-07T11:28:20;6.70;;;1.67;;
68250;SDS011;55066;51.560;4.642;2023-08-07T11:30:48;5.50;;;1.45;;
68250;SDS011;55066;51.560;4.642;2023-08-07T11:33:17;4.97;;;2.15;;
68250;SDS011;55066;51.560;4.642;2023-08-07T11:35:43;5.22;;;1.48;;
68250;SDS011;55066;51.560;4.642;2023-08-07T11:38:08;4.80;;;1.50;;
68250;SDS011;55066;51.560;4.642;2023-08-07T11:40:34;6.30;;;1.70;;
68250;SDS011;55066;51.560;4.642;2023-08-07T11:43:00;6.18;;;1.38;;
68250;SDS011;55066;51.560;4.642;2023-08-07T11:45:26;4.43;;;1.38;;
68250;SDS011;55066;51.560;4.642;2023-08-07T11:47:51;4.67;;;1.60;;
68250;SDS011;55066;51.560;4.642;2023-08-07T11:50:17;6.10;;;1.40;;
68250;SDS011;55066;51.560;4.642;2023-08-07T11:52:42;6.65;;;1.50;;
68250;SDS011;55066;51.560;4.642;2023-08-07T11:55:08;6.87;;;2.13;;
68250;SDS011;55066;51.560;4.642;2023-08-07T11:57:34;6.93;;;2.40;;
68250;SDS011;55066;51.560;4.642;2023-08-07T12:00:05;5.13;;;2.05;;
68250;SDS011;55066;51.560;4.642;2023-08-07T12:02:40;7.20;;;2.13;;
68250;SDS011;55066;51.560;4.642;2023-08-07T12:05:08;5.00;;;1.90;;
68250;SDS011;55066;51.560;4.642;2023-08-07T12:07:36;5.53;;;1.47;;
68250;SDS011;55066;51.560;4.642;2023-08-07T12:10:03;3.47;;;1.33;;
68250;SDS011;55066;51.560;4.642;2023-08-07T12:12:35;3.80;;;1.50;;
68250;SDS011;55066;51.560;4.642;2023-08-07T12:15:01;4.45;;;1.40;;
68250;SDS011;55066;51.560;4.642;2023-08-07T12:17:31;3.40;;;1.13;;
68250;SDS011;55066;51.560;4.642;2023-08-07T12:19:57;2.80;;;1.30;;
68250;SDS011;55066;51.560;4.642;2023-08-07T12:22:23;4.78;;;1.40;;
68250;SDS011;55066;51.560;4.642;2023-08-07T12:24:48;4.90;;;1.70;;
68250;SDS011;55066;51.560;4.642;2023-08-07T12:27:14;3.50;;;1.37;;
68250;SDS011;55066;51.560;4.642;2023-08-07T12:29:39;4.50;;;1.70;;
68250;SDS011;55066;51.560;4.642;2023-08-07T12:32:05;4.93;;;2.00;;
68250;SDS011;55066;51.560;4.642;2023-08-07T12:34:30;3.63;;;1.30;;
68250;SDS011;55066;51.560;4.642;2023-08-07T12:36:57;3.13;;;1.20;;
68250;SDS011;55066;51.560;4.642;2023-08-07T12:39:23;3.63;;;1.23;;
68250;SDS011;55066;51.560;4.642;2023-08-07T12:41:48;3.20;;;1.30;;
68250;SDS011;55066;51.560;4.642;2023-08-07T12:44:14;4.97;;;1.37;;
68250;SDS011;55066;51.560;4.642;2023-08-07T12:46:40;3.50;;;1.40;;
68250;SDS011;55066;51.560;4.642;2023-08-07T12:49:08;3.60;;;1.27;;
68250;SDS011;55066;51.560;4.642;2023-08-07T12:51:34;4.30;;;1.30;;
68250;SDS011;55066;51.560;4.642;2023-08-07T12:54:00;5.67;;;2.00;;
68250;SDS011;55066;51.560;4.642;2023-08-07T12:56:25;4.17;;;1.40;;
68250;SDS011;55066;51.560;4.642;2023-08-07T12:58:50;3.67;;;1.30;;
68250;SDS011;55066;51.560;4.642;2023-08-07T13:01:16;3.70;;;1.30;;
68250;SDS011;55066;51.560;4.642;2023-08-07T13:03:41;3.60;;;1.57;;
68250;SDS011;55066;51.560;4.642;2023-08-07T13:06:07;4.23;;;1.93;;
68250;SDS011;55066;51.560;4.642;2023-08-07T13:08:34;6.38;;;2.35;;
68250;SDS011;55066;51.560;4.642;2023-08-07T13:11:00;4.57;;;2.08;;
68250;SDS011;55066;51.560;4.642;2023-08-07T13:13:26;6.43;;;2.53;;
68250;SDS011;55066;51.560;4.642;2023-08-07T13:15:53;6.65;;;2.40;;
68250;SDS011;55066;51.560;4.642;2023-08-07T13:18:19;4.47;;;1.77;;
68250;SDS011;55066;51.560;4.642;2023-08-07T13:20:44;3.80;;;1.40;;
68250;SDS011;55066;51.560;4.642;2023-08-07T13:23:10;3.70;;;1.47;;
68250;SDS011;55066;51.560;4.642;2023-08-07T13:25:37;3.95;;;1.23;;
68250;SDS011;55066;51.560;4.642;2023-08-07T13:28:02;3.75;;;1.42;;
68250;SDS011;55066;51.560;4.642;2023-08-07T13:30:32;5.65;;;2.00;;
68250;SDS011;55066;51.560;4.642;2023-08-07T13:32:57;8.38;;;1.88;;
68250;SDS011;55066;51.560;4.642;2023-08-07T13:35:23;4.90;;;1.80;;
68250;SDS011;55066;51.560;4.642;2023-08-07T13:37:48;4.67;;;1.50;;
68250;SDS011;55066;51.560;4.642;2023-08-07T13:40:14;5.80;;;1.60;;
68250;SDS011;55066;51.560;4.642;2023-08-07T13:42:39;2.72;;;1.40;;
68250;SDS011;55066;51.560;4.642;2023-08-07T13:45:05;3.43;;;1.30;;
68250;SDS011;55066;51.560;4.642;2023-08-07T13:47:32;2.83;;;1.23;;
68250;SDS011;55066;51.560;4.642;2023-08-07T13:49:58;7.57;;;1.80;;
68250;SDS011;55066;51.560;4.642;2023-08-07T13:52:23;4.72;;;2.17;;
68250;SDS011;55066;51.560;4.642;2023-08-07T13:54:50;4.87;;;1.50;;
68250;SDS011;55066;51.560;4.642;2023-08-07T13:57:15;4.22;;;1.85;;
68250;SDS011;55066;51.560;4.642;2023-08-07T13:59:41;5.70;;;1.40;;
68250;SDS011;55066;51.560;4.642;2023-08-07T14:02:06;3.27;;;1.53;;
68250;SDS011;55066;51.560;4.642;2023-08-07T14:04:32;3.67;;;1.23;;
68250;SDS011;55066;51.560;4.642;2023-08-07T14:06:58;4.43;;;1.33;;
68250;SDS011;55066;51.560;4.642;2023-08-07T14:09:24;3.83;;;1.30;;
68250;SDS011;55066;51.560;4.642;2023-08-07T14:11:50;2.80;;;1.10;;
68250;SDS011;55066;51.560;4.642;2023-08-07T14:14:15;6.25;;;1.42;;
68250;SDS011;55066;51.560;4.642;2023-08-07T14:16:41;3.40;;;1.33;;
68250;SDS011;55066;51.560;4.642;2023-08-07T14:19:07;3.58;;;1.20;;
68250;SDS011;55066;51.560;4.642;2023-08-07T14:21:33;4.10;;;1.30;;
68250;SDS011;55066;51.560;4.642;2023-08-07T14:23:58;2.83;;;1.30;;
68250;SDS011;55066;51.560;4.642;2023-08-07T14:26:25;3.38;;;1.10;;
68250;SDS011;55066;51.560;4.642;2023-08-07T14:28:50;3.67;;;1.35;;
68250;SDS011;55066;51.560;4.642;2023-08-07T14:31:16;4.53;;;1.27;;
68250;SDS011;55066;51.560;4.642;2023-08-07T14:33:41;3.43;;;1.30;;
68250;SDS011;55066;51.560;4.642;2023-08-07T14:36:07;3.20;;;1.20;;
68250;SDS011;55066;51.560;4.642;2023-08-07T14:38:32;3.45;;;1.33;;
68250;SDS011;55066;51.560;4.642;2023-08-07T14:40:58;2.63;;;1.20;;
68250;SDS011;55066;51.560;4.642;2023-08-07T14:43:28;3.33;;;1.35;;
68250;SDS011;55066;51.560;4.642;2023-08-07T14:45:55;2.83;;;1.23;;